sensor_id;sensor_type;location;lat;lon;timestamp;temperature;humidity
22167;DHT22;11249;52.468;13.776;2022-07-29T00:01:08;15.60;99.90
22167;DHT22;11249;52.468;13.776;2022-07-29T00:03:45;15.50;99.90
22167;DHT22;11249;52.468;13.776;2022-07-29T00:06:12;15.60;99.90
22167;DHT22;11249;52.468;13.776;2022-07-29T00:08:38;15.50;99.90
22167;DHT22;11249;52.468;13.776;2022-07-29T00:11:28;15.50;99.90
22167;DHT22;11249;52.468;13.776;2022-07-29T00:14:09;15.50;99.90
22167;DHT22;11249;52.468;13.776;2022-07-29T00:16:35;15.50;99.90
22167;DHT22;11249;52.468;13.776;2022-07-29T00:19:03;15.40;99.90
22167;DHT22;11249;52.468;13.776;2022-07-29T00:21:38;15.40;99.90
22167;DHT22;11249;52.468;13.776;2022-07-29T00:24:04;15.40;99.90
22167;DHT22;11249;52.468;13.776;2022-07-29T00:26:31;15.30;99.90
22167;DHT22;11249;52.468;13.776;2022-07-29T00:29:05;15.30;99.90
22167;DHT22;11249;52.468;13.776;2022-07-29T00:31:52;15.30;99.90
22167;DHT22;11249;52.468;13.776;2022-07-29T00:34:25;15.30;99.90
22167;DHT22;11249;52.468;13.776;2022-07-29T00:37:11;15.20;99.90
22167;DHT22;11249;52.468;13.776;2022-07-29T00:39:43;15.20;99.90
22167;DHT22;11249;52.468;13.776;2022-07-29T00:42:10;15.20;99.90
22167;DHT22;11249;52.468;13.776;2022-07-29T00:44:38;15.10;99.90
22167;DHT22;11249;52.468;13.776;2022-07-29T00:47:12;15.20;99.90
22167;DHT22;11249;52.468;13.776;2022-07-29T00:49:40;15.10;99.90
22167;DHT22;11249;52.468;13.776;2022-07-29T00:52:13;15.10;99.90
22167;DHT22;11249;52.468;13.776;2022-07-29T00:54:42;15.00;99.90
22167;DHT22;11249;52.468;13.776;2022-07-29T00:57:15;15.00;99.90
22167;DHT22;11249;52.468;13.776;2022-07-29T00:59:42;15.00;99.90
22167;DHT22;11249;52.468;13.776;2022-07-29T01:02:09;14.90;99.90
22167;DHT22;11249;52.468;13.776;2022-07-29T01:04:43;14.90;99.90
22167;DHT22;11249;52.468;13.776;2022-07-29T01:07:10;14.80;99.90
22167;DHT22;11249;52.468;13.776;2022-07-29T01:09:50;14.80;99.90
22167;DHT22;11249;52.468;13.776;2022-07-29T01:12:23;14.80;99.90
22167;DHT22;11249;52.468;13.776;2022-07-29T01:14:56;14.70;99.90
22167;DHT22;11249;52.468;13.776;2022-07-29T01:17:28;14.70;99.90
22167;DHT22;11249;52.468;13.776;2022-07-29T01:20:25;14.70;99.90
22167;DHT22;11249;52.468;13.776;2022-07-29T01:23:27;14.60;99.90
22167;DHT22;11249;52.468;13.776;2022-07-29T01:29:16;14.60;99.90
22167;DHT22;11249;52.468;13.776;2022-07-29T01:31:56;14.50;99.90
22167;DHT22;11249;52.468;13.776;2022-07-29T01:34:56;14.50;99.90
22167;DHT22;11249;52.468;13.776;2022-07-29T01:37:38;14.50;99.90
22167;DHT22;11249;52.468;13.776;2022-07-29T01:40:20;14.40;99.90
22167;DHT22;11249;52.468;13.776;2022-07-29T01:42:57;14.50;99.90
22167;DHT22;11249;52.468;13.776;2022-07-29T01:45:45;14.50;99.90
22167;DHT22;11249;52.468;13.776;2022-07-29T01:48:43;14.50;99.90
22167;DHT22;11249;52.468;13.776;2022-07-29T01:51:21;14.50;99.90
22167;DHT22;11249;52.468;13.776;2022-07-29T01:54:26;14.50;99.90
22167;DHT22;11249;52.468;13.776;2022-07-29T01:56:56;14.50;99.90
22167;DHT22;11249;52.468;13.776;2022-07-29T01:59:33;14.50;99.90
22167;DHT22;11249;52.468;13.776;2022-07-29T02:02:04;14.50;99.90
22167;DHT22;11249;52.468;13.776;2022-07-29T02:04:40;14.50;99.90
22167;DHT22;11249;52.468;13.776;2022-07-29T02:07:23;14.50;99.90
22167;DHT22;11249;52.468;13.776;2022-07-29T02:10:05;14.50;99.90
22167;DHT22;11249;52.468;13.776;2022-07-29T02:12:40;14.40;99.90
22167;DHT22;11249;52.468;13.776;2022-07-29T02:15:16;14.40;99.90
22167;DHT22;11249;52.468;13.776;2022-07-29T02:17:55;14.40;99.90
22167;DHT22;11249;52.468;13.776;2022-07-29T02:20:29;14.50;99.90
22167;DHT22;11249;52.468;13.776;2022-07-29T02:23:04;14.50;99.90
22167;DHT22;11249;52.468;13.776;2022-07-29T02:25:37;14.50;99.90
22167;DHT22;11249;52.468;13.776;2022-07-29T02:28:06;14.50;99.90
22167;DHT22;11249;52.468;13.776;2022-07-29T02:30:42;14.40;99.90
22167;DHT22;11249;52.468;13.776;2022-07-29T02:33:17;14.40;99.90
22167;DHT22;11249;52.468;13.776;2022-07-29T02:35:46;14.40;99.90
22167;DHT22;11249;52.468;13.776;2022-07-29T02:38:15;14.40;99.90
22167;DHT22;11249;52.468;13.776;2022-07-29T02:41:12;14.40;99.90
22167;DHT22;11249;52.468;13.776;2022-07-29T02:43:41;14.50;99.90
22167;DHT22;11249;52.468;13.776;2022-07-29T02:46:20;14.50;99.90
22167;DHT22;11249;52.468;13.776;2022-07-29T02:51:45;14.50;99.90
22167;DHT22;11249;52.468;13.776;2022-07-29T02:54:38;14.50;99.90
22167;DHT22;11249;52.468;13.776;2022-07-29T02:57:20;14.50;99.90
22167;DHT22;11249;52.468;13.776;2022-07-29T02:59:57;14.50;99.90
22167;DHT22;11249;52.468;13.776;2022-07-29T03:02:26;14.50;99.90
22167;DHT22;11249;52.468;13.776;2022-07-29T03:04:55;14.50;99.90
22167;DHT22;11249;52.468;13.776;2022-07-29T03:07:36;14.50;99.90
22167;DHT22;11249;52.468;13.776;2022-07-29T03:10:16;14.50;99.90
22167;DHT22;11249;52.468;13.776;2022-07-29T03:12:51;14.50;99.90
22167;DHT22;11249;52.468;13.776;2022-07-29T03:15:25;14.50;99.90
22167;DHT22;11249;52.468;13.776;2022-07-29T03:17:52;14.60;99.90
22167;DHT22;11249;52.468;13.776;2022-07-29T03:20:26;14.60;99.90
22167;DHT22;11249;52.468;13.776;2022-07-29T03:22:53;14.50;99.90
22167;DHT22;11249;52.468;13.776;2022-07-29T03:25:20;14.60;99.90
22167;DHT22;11249;52.468;13.776;2022-07-29T03:27:53;14.60;99.90
22167;DHT22;11249;52.468;13.776;2022-07-29T03:30:20;14.60;99.90
22167;DHT22;11249;52.468;13.776;2022-07-29T03:32:54;14.50;99.90
22167;DHT22;11249;52.468;13.776;2022-07-29T03:35:22;14.60;99.90
22167;DHT22;11249;52.468;13.776;2022-07-29T03:37:49;14.50;99.90
22167;DHT22;11249;52.468;13.776;2022-07-29T03:40:30;14.50;99.90
22167;DHT22;11249;52.468;13.776;2022-07-29T03:43:06;14.60;99.90
22167;DHT22;11249;52.468;13.776;2022-07-29T03:45:35;14.60;99.90
22167;DHT22;11249;52.468;13.776;2022-07-29T03:48:08;14.60;99.90
22167;DHT22;11249;52.468;13.776;2022-07-29T03:50:42;14.60;99.90
22167;DHT22;11249;52.468;13.776;2022-07-29T03:53:08;14.60;99.90
22167;DHT22;11249;52.468;13.776;2022-07-29T03:55:45;14.70;99.90
22167;DHT22;11249;52.468;13.776;2022-07-29T03:58:19;14.70;99.90
22167;DHT22;11249;52.468;13.776;2022-07-29T04:00:46;14.80;99.90
22167;DHT22;11249;52.468;13.776;2022-07-29T04:03:14;14.80;99.90
22167;DHT22;11249;52.468;13.776;2022-07-29T04:06:04;14.80;99.90
22167;DHT22;11249;52.468;13.776;2022-07-29T04:08:52;14.80;99.90
22167;DHT22;11249;52.468;13.776;2022-07-29T04:11:25;14.90;99.90
22167;DHT22;11249;52.468;13.776;2022-07-29T04:14:18;14.90;99.90
22167;DHT22;11249;52.468;13.776;2022-07-29T04:16:51;14.90;99.90
22167;DHT22;11249;52.468;13.776;2022-07-29T04:19:25;14.90;99.90
22167;DHT22;11249;52.468;13.776;2022-07-29T04:21:59;14.90;99.90
22167;DHT22;11249;52.468;13.776;2022-07-29T04:24:27;14.90;99.90
22167;DHT22;11249;52.468;13.776;2022-07-29T04:26:54;15.00;99.90
22167;DHT22;11249;52.468;13.776;2022-07-29T04:29:27;15.00;99.90
22167;DHT22;11249;52.468;13.776;2022-07-29T04:32:00;15.00;99.90
22167;DHT22;11249;52.468;13.776;2022-07-29T04:34:34;15.10;99.90
22167;DHT22;11249;52.468;13.776;2022-07-29T04:37:01;15.10;99.90
22167;DHT22;11249;52.468;13.776;2022-07-29T04:39:27;15.20;99.90
22167;DHT22;11249;52.468;13.776;2022-07-29T04:42:00;15.20;99.90
22167;DHT22;11249;52.468;13.776;2022-07-29T04:44:34;15.30;99.90
22167;DHT22;11249;52.468;13.776;2022-07-29T04:47:08;15.40;99.90
22167;DHT22;11249;52.468;13.776;2022-07-29T04:49:38;15.40;99.90
22167;DHT22;11249;52.468;13.776;2022-07-29T04:52:05;15.50;99.90
22167;DHT22;11249;52.468;13.776;2022-07-29T04:54:38;15.60;99.90
22167;DHT22;11249;52.468;13.776;2022-07-29T04:57:05;15.60;99.90
22167;DHT22;11249;52.468;13.776;2022-07-29T04:59:32;15.60;99.90
22167;DHT22;11249;52.468;13.776;2022-07-29T05:02:05;15.70;99.90
22167;DHT22;11249;52.468;13.776;2022-07-29T05:04:32;15.80;99.90
22167;DHT22;11249;52.468;13.776;2022-07-29T05:06:59;15.90;99.90
22167;DHT22;11249;52.468;13.776;2022-07-29T05:09:40;15.90;99.90
22167;DHT22;11249;52.468;13.776;2022-07-29T05:12:13;15.90;99.90
22167;DHT22;11249;52.468;13.776;2022-07-29T05:14:40;15.90;99.90
22167;DHT22;11249;52.468;13.776;2022-07-29T05:17:13;15.80;99.90
22167;DHT22;11249;52.468;13.776;2022-07-29T05:19:46;15.90;99.90
22167;DHT22;11249;52.468;13.776;2022-07-29T05:22:13;15.90;99.90
22167;DHT22;11249;52.468;13.776;2022-07-29T05:24:47;15.90;99.90
22167;DHT22;11249;52.468;13.776;2022-07-29T05:27:13;15.90;99.90
22167;DHT22;11249;52.468;13.776;2022-07-29T05:29:40;16.00;99.90
22167;DHT22;11249;52.468;13.776;2022-07-29T05:32:13;16.00;99.90
22167;DHT22;11249;52.468;13.776;2022-07-29T05:34:41;16.10;99.90
22167;DHT22;11249;52.468;13.776;2022-07-29T05:37:18;16.20;99.90
22167;DHT22;11249;52.468;13.776;2022-07-29T05:39:45;16.40;99.90
22167;DHT22;11249;52.468;13.776;2022-07-29T05:42:23;16.50;99.90
22167;DHT22;11249;52.468;13.776;2022-07-29T05:44:50;16.60;99.90
22167;DHT22;11249;52.468;13.776;2022-07-29T05:47:24;16.60;99.90
22167;DHT22;11249;52.468;13.776;2022-07-29T05:49:51;16.60;99.90
22167;DHT22;11249;52.468;13.776;2022-07-29T05:52:17;16.70;99.90
22167;DHT22;11249;52.468;13.776;2022-07-29T05:54:50;16.70;99.90
22167;DHT22;11249;52.468;13.776;2022-07-29T05:57:19;16.80;99.90
22167;DHT22;11249;52.468;13.776;2022-07-29T05:59:52;16.80;99.90
22167;DHT22;11249;52.468;13.776;2022-07-29T06:02:25;16.80;99.90
22167;DHT22;11249;52.468;13.776;2022-07-29T06:04:52;16.90;99.90
22167;DHT22;11249;52.468;13.776;2022-07-29T06:07:26;16.80;99.90
22167;DHT22;11249;52.468;13.776;2022-07-29T06:10:05;16.80;99.90
22167;DHT22;11249;52.468;13.776;2022-07-29T06:12:38;16.90;99.90
22167;DHT22;11249;52.468;13.776;2022-07-29T06:15:05;16.80;99.90
22167;DHT22;11249;52.468;13.776;2022-07-29T06:17:32;16.90;99.90
22167;DHT22;11249;52.468;13.776;2022-07-29T06:20:25;16.90;99.90
22167;DHT22;11249;52.468;13.776;2022-07-29T06:23:00;17.00;99.90
22167;DHT22;11249;52.468;13.776;2022-07-29T06:25:27;17.00;99.90
22167;DHT22;11249;52.468;13.776;2022-07-29T06:28:04;17.00;99.90
22167;DHT22;11249;52.468;13.776;2022-07-29T06:30:31;17.00;99.90
22167;DHT22;11249;52.468;13.776;2022-07-29T06:33:05;17.20;99.90
22167;DHT22;11249;52.468;13.776;2022-07-29T06:35:34;17.30;99.90
22167;DHT22;11249;52.468;13.776;2022-07-29T06:38:18;17.30;99.90
22167;DHT22;11249;52.468;13.776;2022-07-29T06:41:01;17.30;99.90
22167;DHT22;11249;52.468;13.776;2022-07-29T06:43:40;17.40;99.90
22167;DHT22;11249;52.468;13.776;2022-07-29T06:46:22;17.60;99.90
22167;DHT22;11249;52.468;13.776;2022-07-29T06:48:50;17.80;99.90
22167;DHT22;11249;52.468;13.776;2022-07-29T06:51:24;17.80;99.90
22167;DHT22;11249;52.468;13.776;2022-07-29T06:53:52;17.90;99.90
22167;DHT22;11249;52.468;13.776;2022-07-29T06:56:32;18.00;99.90
22167;DHT22;11249;52.468;13.776;2022-07-29T06:59:07;18.10;99.90
22167;DHT22;11249;52.468;13.776;2022-07-29T07:01:42;18.20;99.90
22167;DHT22;11249;52.468;13.776;2022-07-29T07:04:15;18.30;99.90
22167;DHT22;11249;52.468;13.776;2022-07-29T07:06:43;18.50;99.90
22167;DHT22;11249;52.468;13.776;2022-07-29T07:09:10;18.70;99.90
22167;DHT22;11249;52.468;13.776;2022-07-29T07:11:43;18.90;99.90
22167;DHT22;11249;52.468;13.776;2022-07-29T07:14:16;19.10;99.90
22167;DHT22;11249;52.468;13.776;2022-07-29T07:16:44;19.30;99.90
22167;DHT22;11249;52.468;13.776;2022-07-29T07:19:11;19.20;99.90
22167;DHT22;11249;52.468;13.776;2022-07-29T07:21:44;19.20;99.90
22167;DHT22;11249;52.468;13.776;2022-07-29T07:24:11;19.30;99.90
22167;DHT22;11249;52.468;13.776;2022-07-29T07:26:38;19.30;99.90
22167;DHT22;11249;52.468;13.776;2022-07-29T07:29:12;19.40;99.90
22167;DHT22;11249;52.468;13.776;2022-07-29T07:31:39;19.40;99.90
22167;DHT22;11249;52.468;13.776;2022-07-29T07:34:06;19.50;99.90
22167;DHT22;11249;52.468;13.776;2022-07-29T07:36:40;19.60;99.90
22167;DHT22;11249;52.468;13.776;2022-07-29T07:39:13;19.70;99.90
22167;DHT22;11249;52.468;13.776;2022-07-29T07:41:40;19.90;99.90
22167;DHT22;11249;52.468;13.776;2022-07-29T07:44:07;19.90;99.90
22167;DHT22;11249;52.468;13.776;2022-07-29T07:46:41;19.90;99.90
22167;DHT22;11249;52.468;13.776;2022-07-29T07:49:10;19.80;99.90
22167;DHT22;11249;52.468;13.776;2022-07-29T07:51:37;19.70;99.90
22167;DHT22;11249;52.468;13.776;2022-07-29T07:54:29;19.70;99.90
22167;DHT22;11249;52.468;13.776;2022-07-29T07:57:09;19.80;99.90
22167;DHT22;11249;52.468;13.776;2022-07-29T07:59:36;19.90;99.90
22167;DHT22;11249;52.468;13.776;2022-07-29T08:02:09;20.10;99.90
22167;DHT22;11249;52.468;13.776;2022-07-29T08:04:36;20.20;99.90
22167;DHT22;11249;52.468;13.776;2022-07-29T08:07:03;20.40;99.90
22167;DHT22;11249;52.468;13.776;2022-07-29T08:09:36;20.50;99.90
22167;DHT22;11249;52.468;13.776;2022-07-29T08:12:09;20.60;99.90
22167;DHT22;11249;52.468;13.776;2022-07-29T08:14:36;20.70;99.90
22167;DHT22;11249;52.468;13.776;2022-07-29T08:17:09;20.70;99.90
22167;DHT22;11249;52.468;13.776;2022-07-29T08:19:36;20.80;99.90
22167;DHT22;11249;52.468;13.776;2022-07-29T08:22:11;20.90;99.90
22167;DHT22;11249;52.468;13.776;2022-07-29T08:24:37;21.10;99.90
22167;DHT22;11249;52.468;13.776;2022-07-29T08:27:16;21.30;99.90
22167;DHT22;11249;52.468;13.776;2022-07-29T08:30:04;21.50;99.90
22167;DHT22;11249;52.468;13.776;2022-07-29T08:32:38;21.70;99.90
22167;DHT22;11249;52.468;13.776;2022-07-29T08:35:22;21.80;99.90
22167;DHT22;11249;52.468;13.776;2022-07-29T08:38:01;22.00;99.90
22167;DHT22;11249;52.468;13.776;2022-07-29T08:40:29;22.20;99.90
22167;DHT22;11249;52.468;13.776;2022-07-29T08:43:07;22.30;99.90
22167;DHT22;11249;52.468;13.776;2022-07-29T08:45:46;22.50;99.90
22167;DHT22;11249;52.468;13.776;2022-07-29T08:48:16;22.60;99.90
22167;DHT22;11249;52.468;13.776;2022-07-29T08:50:55;22.70;99.90
22167;DHT22;11249;52.468;13.776;2022-07-29T08:53:24;22.90;99.90
22167;DHT22;11249;52.468;13.776;2022-07-29T08:55:59;23.10;99.90
22167;DHT22;11249;52.468;13.776;2022-07-29T08:58:27;23.30;99.90
22167;DHT22;11249;52.468;13.776;2022-07-29T09:00:57;23.50;99.90
22167;DHT22;11249;52.468;13.776;2022-07-29T09:03:39;23.60;99.90
22167;DHT22;11249;52.468;13.776;2022-07-29T09:06:31;23.70;99.90
22167;DHT22;11249;52.468;13.776;2022-07-29T09:09:13;23.90;99.90
22167;DHT22;11249;52.468;13.776;2022-07-29T09:11:45;24.00;99.90
22167;DHT22;11249;52.468;13.776;2022-07-29T09:14:20;24.20;99.90
22167;DHT22;11249;52.468;13.776;2022-07-29T09:16:50;24.40;99.90
22167;DHT22;11249;52.468;13.776;2022-07-29T09:19:28;24.50;99.90
22167;DHT22;11249;52.468;13.776;2022-07-29T09:22:04;24.70;99.90
22167;DHT22;11249;52.468;13.776;2022-07-29T09:27:08;24.70;99.90
22167;DHT22;11249;52.468;13.776;2022-07-29T09:29:42;24.70;99.90
22167;DHT22;11249;52.468;13.776;2022-07-29T09:32:15;24.70;99.90
22167;DHT22;11249;52.468;13.776;2022-07-29T09:34:42;24.60;99.90
22167;DHT22;11249;52.468;13.776;2022-07-29T09:37:28;24.70;99.90
22167;DHT22;11249;52.468;13.776;2022-07-29T09:39:55;24.70;99.90
22167;DHT22;11249;52.468;13.776;2022-07-29T09:42:29;24.80;99.90
22167;DHT22;11249;52.468;13.776;2022-07-29T09:45:10;24.70;99.90
22167;DHT22;11249;52.468;13.776;2022-07-29T09:47:47;24.70;99.90
22167;DHT22;11249;52.468;13.776;2022-07-29T09:50:22;24.90;99.90
22167;DHT22;11249;52.468;13.776;2022-07-29T09:52:52;24.90;99.90
22167;DHT22;11249;52.468;13.776;2022-07-29T09:55:28;25.10;99.90
22167;DHT22;11249;52.468;13.776;2022-07-29T09:58:18;25.30;99.90
22167;DHT22;11249;52.468;13.776;2022-07-29T10:00:53;25.40;99.90
22167;DHT22;11249;52.468;13.776;2022-07-29T10:03:27;25.60;99.90
22167;DHT22;11249;52.468;13.776;2022-07-29T10:06:19;25.60;99.90
22167;DHT22;11249;52.468;13.776;2022-07-29T10:08:46;25.60;99.90
22167;DHT22;11249;52.468;13.776;2022-07-29T10:11:26;25.80;99.90
22167;DHT22;11249;52.468;13.776;2022-07-29T10:14:14;26.10;99.90
22167;DHT22;11249;52.468;13.776;2022-07-29T10:16:47;26.20;99.90
22167;DHT22;11249;52.468;13.776;2022-07-29T10:19:14;26.30;99.90
22167;DHT22;11249;52.468;13.776;2022-07-29T10:21:41;26.30;99.90
22167;DHT22;11249;52.468;13.776;2022-07-29T10:24:25;26.40;99.90
22167;DHT22;11249;52.468;13.776;2022-07-29T10:26:57;26.50;99.90
22167;DHT22;11249;52.468;13.776;2022-07-29T10:29:31;26.70;99.90
22167;DHT22;11249;52.468;13.776;2022-07-29T10:32:20;26.90;99.90
22167;DHT22;11249;52.468;13.776;2022-07-29T10:35:28;26.80;99.90
22167;DHT22;11249;52.468;13.776;2022-07-29T10:38:35;26.90;99.90
22167;DHT22;11249;52.468;13.776;2022-07-29T10:41:29;27.30;99.90
22167;DHT22;11249;52.468;13.776;2022-07-29T10:44:16;27.70;99.90
22167;DHT22;11249;52.468;13.776;2022-07-29T10:46:50;27.90;99.90
22167;DHT22;11249;52.468;13.776;2022-07-29T10:49:26;27.60;99.90
22167;DHT22;11249;52.468;13.776;2022-07-29T10:57:18;28.00;99.90
22167;DHT22;11249;52.468;13.776;2022-07-29T11:02:43;28.20;99.90
22167;DHT22;11249;52.468;13.776;2022-07-29T11:05:19;28.30;99.90
22167;DHT22;11249;52.468;13.776;2022-07-29T11:10:53;28.60;99.90
22167;DHT22;11249;52.468;13.776;2022-07-29T11:13:50;28.40;99.90
22167;DHT22;11249;52.468;13.776;2022-07-29T11:16:24;28.40;99.90
22167;DHT22;11249;52.468;13.776;2022-07-29T11:22:08;28.60;99.90
22167;DHT22;11249;52.468;13.776;2022-07-29T11:24:42;28.90;99.90
22167;DHT22;11249;52.468;13.776;2022-07-29T11:27:18;29.20;99.90
22167;DHT22;11249;52.468;13.776;2022-07-29T11:29:58;29.30;99.90
22167;DHT22;11249;52.468;13.776;2022-07-29T11:32:42;29.40;99.90
22167;DHT22;11249;52.468;13.776;2022-07-29T11:35:19;29.60;99.90
22167;DHT22;11249;52.468;13.776;2022-07-29T11:41:24;30.10;99.90
22167;DHT22;11249;52.468;13.776;2022-07-29T11:43:57;30.60;99.90
22167;DHT22;11249;52.468;13.776;2022-07-29T11:46:47;29.90;99.90
22167;DHT22;11249;52.468;13.776;2022-07-29T11:49:24;29.20;99.90
22167;DHT22;11249;52.468;13.776;2022-07-29T11:51:59;29.40;99.90
22167;DHT22;11249;52.468;13.776;2022-07-29T11:54:41;30.30;99.90
22167;DHT22;11249;52.468;13.776;2022-07-29T11:57:24;30.60;99.90
22167;DHT22;11249;52.468;13.776;2022-07-29T12:00:06;30.40;99.90
22167;DHT22;11249;52.468;13.776;2022-07-29T12:02:42;30.20;99.90
22167;DHT22;11249;52.468;13.776;2022-07-29T12:05:45;29.70;99.90
22167;DHT22;11249;52.468;13.776;2022-07-29T12:08:21;29.90;99.90
22167;DHT22;11249;52.468;13.776;2022-07-29T12:10:54;29.90;99.90
22167;DHT22;11249;52.468;13.776;2022-07-29T12:13:21;30.30;99.90
22167;DHT22;11249;52.468;13.776;2022-07-29T12:16:03;30.80;99.90
22167;DHT22;11249;52.468;13.776;2022-07-29T12:18:31;31.30;99.90
22167;DHT22;11249;52.468;13.776;2022-07-29T12:21:05;31.70;99.50
22167;DHT22;11249;52.468;13.776;2022-07-29T12:23:32;31.90;99.70
22167;DHT22;11249;52.468;13.776;2022-07-29T12:26:04;31.80;99.50
22167;DHT22;11249;52.468;13.776;2022-07-29T12:28:51;32.00;99.40
22167;DHT22;11249;52.468;13.776;2022-07-29T12:31:20;32.30;98.60
22167;DHT22;11249;52.468;13.776;2022-07-29T12:34:11;32.40;97.80
22167;DHT22;11249;52.468;13.776;2022-07-29T12:36:39;30.70;98.80
22167;DHT22;11249;52.468;13.776;2022-07-29T12:39:12;30.70;99.50
22167;DHT22;11249;52.468;13.776;2022-07-29T12:41:39;30.80;99.80
22167;DHT22;11249;52.468;13.776;2022-07-29T12:44:12;31.10;99.30
22167;DHT22;11249;52.468;13.776;2022-07-29T12:46:45;31.40;99.10
22167;DHT22;11249;52.468;13.776;2022-07-29T12:49:33;31.60;98.00
22167;DHT22;11249;52.468;13.776;2022-07-29T12:52:33;32.00;98.00
22167;DHT22;11249;52.468;13.776;2022-07-29T12:55:07;32.30;98.60
22167;DHT22;11249;52.468;13.776;2022-07-29T12:57:50;33.20;96.40
22167;DHT22;11249;52.468;13.776;2022-07-29T13:00:24;33.20;95.70
22167;DHT22;11249;52.468;13.776;2022-07-29T13:02:59;33.40;95.80
22167;DHT22;11249;52.468;13.776;2022-07-29T13:05:43;33.50;95.60
22167;DHT22;11249;52.468;13.776;2022-07-29T13:08:18;33.10;95.10
22167;DHT22;11249;52.468;13.776;2022-07-29T13:10:59;32.50;96.20
22167;DHT22;11249;52.468;13.776;2022-07-29T13:13:32;33.00;95.90
22167;DHT22;11249;52.468;13.776;2022-07-29T13:16:07;33.00;95.80
22167;DHT22;11249;52.468;13.776;2022-07-29T13:18:40;32.70;95.00
22167;DHT22;11249;52.468;13.776;2022-07-29T13:21:16;32.40;96.60
22167;DHT22;11249;52.468;13.776;2022-07-29T13:23:48;32.30;96.80
22167;DHT22;11249;52.468;13.776;2022-07-29T13:26:15;32.60;96.70
22167;DHT22;11249;52.468;13.776;2022-07-29T13:28:46;32.80;95.40
22167;DHT22;11249;52.468;13.776;2022-07-29T13:31:18;32.40;95.20
22167;DHT22;11249;52.468;13.776;2022-07-29T13:33:45;32.10;95.80
22167;DHT22;11249;52.468;13.776;2022-07-29T13:36:20;32.40;95.30
22167;DHT22;11249;52.468;13.776;2022-07-29T13:38:46;32.20;95.20
22167;DHT22;11249;52.468;13.776;2022-07-29T13:41:19;32.20;95.30
22167;DHT22;11249;52.468;13.776;2022-07-29T13:43:46;31.80;95.20
22167;DHT22;11249;52.468;13.776;2022-07-29T13:46:19;31.70;95.70
22167;DHT22;11249;52.468;13.776;2022-07-29T13:48:46;31.60;95.50
22167;DHT22;11249;52.468;13.776;2022-07-29T13:51:13;31.10;96.00
22167;DHT22;11249;52.468;13.776;2022-07-29T13:53:46;31.00;96.20
22167;DHT22;11249;52.468;13.776;2022-07-29T13:56:13;30.70;96.50
22167;DHT22;11249;52.468;13.776;2022-07-29T13:58:40;31.40;96.40
22167;DHT22;11249;52.468;13.776;2022-07-29T14:01:13;32.20;95.10
22167;DHT22;11249;52.468;13.776;2022-07-29T14:03:47;32.70;94.00
22167;DHT22;11249;52.468;13.776;2022-07-29T14:06:13;32.30;93.50
22167;DHT22;11249;52.468;13.776;2022-07-29T14:08:40;32.20;94.30
22167;DHT22;11249;52.468;13.776;2022-07-29T14:11:13;32.80;94.10
22167;DHT22;11249;52.468;13.776;2022-07-29T14:13:54;32.90;93.60
22167;DHT22;11249;52.468;13.776;2022-07-29T14:16:21;33.30;92.90
22167;DHT22;11249;52.468;13.776;2022-07-29T14:18:56;33.10;92.80
22167;DHT22;11249;52.468;13.776;2022-07-29T14:21:23;32.40;92.40
22167;DHT22;11249;52.468;13.776;2022-07-29T14:23:50;32.00;93.50
22167;DHT22;11249;52.468;13.776;2022-07-29T14:26:25;31.70;93.80
22167;DHT22;11249;52.468;13.776;2022-07-29T14:28:52;31.90;93.10
22167;DHT22;11249;52.468;13.776;2022-07-29T14:31:19;31.60;93.00
22167;DHT22;11249;52.468;13.776;2022-07-29T14:33:52;31.60;93.50
22167;DHT22;11249;52.468;13.776;2022-07-29T14:36:19;32.40;93.10
22167;DHT22;11249;52.468;13.776;2022-07-29T14:38:52;33.00;92.30
22167;DHT22;11249;52.468;13.776;2022-07-29T14:41:25;33.20;92.40
22167;DHT22;11249;52.468;13.776;2022-07-29T14:44:01;34.10;92.00
22167;DHT22;11249;52.468;13.776;2022-07-29T14:46:27;34.30;90.40
22167;DHT22;11249;52.468;13.776;2022-07-29T14:48:54;34.70;90.30
22167;DHT22;11249;52.468;13.776;2022-07-29T14:51:27;33.40;90.60
22167;DHT22;11249;52.468;13.776;2022-07-29T14:53:58;33.30;91.40
22167;DHT22;11249;52.468;13.776;2022-07-29T14:56:32;33.10;91.30
22167;DHT22;11249;52.468;13.776;2022-07-29T14:59:03;32.90;91.70
22167;DHT22;11249;52.468;13.776;2022-07-29T15:01:30;32.60;91.60
22167;DHT22;11249;52.468;13.776;2022-07-29T15:04:03;32.10;91.80
22167;DHT22;11249;52.468;13.776;2022-07-29T15:06:36;31.80;91.50
22167;DHT22;11249;52.468;13.776;2022-07-29T15:09:10;31.80;92.90
22167;DHT22;11249;52.468;13.776;2022-07-29T15:11:50;31.70;92.20
22167;DHT22;11249;52.468;13.776;2022-07-29T15:14:24;31.80;93.10
22167;DHT22;11249;52.468;13.776;2022-07-29T15:16:51;32.80;92.00
22167;DHT22;11249;52.468;13.776;2022-07-29T15:19:24;33.50;90.60
22167;DHT22;11249;52.468;13.776;2022-07-29T15:21:50;33.30;90.50
22167;DHT22;11249;52.468;13.776;2022-07-29T15:24:19;33.40;90.20
22167;DHT22;11249;52.468;13.776;2022-07-29T15:26:53;33.10;90.60
22167;DHT22;11249;52.468;13.776;2022-07-29T15:29:20;33.00;90.40
22167;DHT22;11249;52.468;13.776;2022-07-29T15:31:53;34.00;90.10
22167;DHT22;11249;52.468;13.776;2022-07-29T15:34:20;34.00;88.90
22167;DHT22;11249;52.468;13.776;2022-07-29T15:36:56;34.70;89.30
22167;DHT22;11249;52.468;13.776;2022-07-29T15:39:22;34.80;89.00
22167;DHT22;11249;52.468;13.776;2022-07-29T15:41:49;35.10;87.80
22167;DHT22;11249;52.468;13.776;2022-07-29T15:44:23;35.10;87.20
22167;DHT22;11249;52.468;13.776;2022-07-29T15:46:49;34.00;88.80
22167;DHT22;11249;52.468;13.776;2022-07-29T15:49:41;34.10;91.60
22167;DHT22;11249;52.468;13.776;2022-07-29T15:52:18;34.10;89.40
22167;DHT22;11249;52.468;13.776;2022-07-29T15:54:54;33.90;87.40
22167;DHT22;11249;52.468;13.776;2022-07-29T15:57:21;33.40;87.50
22167;DHT22;11249;52.468;13.776;2022-07-29T15:59:55;33.80;88.70
22167;DHT22;11249;52.468;13.776;2022-07-29T16:02:22;34.10;87.40
22167;DHT22;11249;52.468;13.776;2022-07-29T16:04:49;33.80;87.30
22167;DHT22;11249;52.468;13.776;2022-07-29T16:07:22;33.20;85.90
22167;DHT22;11249;52.468;13.776;2022-07-29T16:10:04;32.70;87.00
22167;DHT22;11249;52.468;13.776;2022-07-29T16:12:37;32.80;89.20
22167;DHT22;11249;52.468;13.776;2022-07-29T16:15:11;33.30;87.50
22167;DHT22;11249;52.468;13.776;2022-07-29T16:17:44;32.90;87.30
22167;DHT22;11249;52.468;13.776;2022-07-29T16:20:11;32.90;88.20
22167;DHT22;11249;52.468;13.776;2022-07-29T16:22:47;32.90;88.20
22167;DHT22;11249;52.468;13.776;2022-07-29T16:25:14;33.70;87.70